• Join FlightAware (Why Join?)
  • Login
  • US Flag 
04:51AM EDT


 

Airport Tracker/Info


-or-


 

Live Flight TrackerFlight Track Log ✈ DAL268 ✈ 12-May-2013 ✈ KATL - KJFK

Flight Track Log - Related Links

Times and Time Zones

All times are in EDT time to prevent confusion due to time zone crossing. See the DAL268 flight status page for this flight to view local times or setup timezone preferences in your user account.

Time Position Orientation Groundspeed Altitude Reporting Facility
EDT Latitude Longitude Course Direction KTS MPH feet Rate Location/Type
06:56PM 33.6333 -84.4667 101° East 167 192 2,200  Level Atlanta TRACON
06:57PM 33.6167 -84.5333 253° West 248 285 4,100 2,460 Climbing Atlanta TRACON
06:58PM 33.5500 -84.5833 212° Southwest 285 328 7,200 2,220 Climbing Atlanta TRACON
06:59PM 33.7066 -83.9729 101° East  Level FlightAware Approximate
07:00PM 33.6817 -83.8231 101° East  Level FlightAware Approximate
07:00PM 33.4492 -84.4669 136° Southeast 264 304 11,200  Level Atlanta Center
07:01PM 33.6567 -83.6735 101° East  Level FlightAware Approximate
07:01PM 33.4558 -84.3350 86° East 323 372 12,500  Level Atlanta Center
07:03PM 33.5458 -84.0611 68° East 414 476 16,800 1,800 Climbing Atlanta Center
07:04PM 33.6022 -83.9192 64° Northeast 451 519 18,000 1,200 Climbing Atlanta Center
07:05PM 33.6353 -83.7669 75° East 470 541 19,200 1,380 Climbing Atlanta Center
07:06PM 33.6744 -83.6069 74° East 481 554 20,800 1,620 Climbing Atlanta Center
07:07PM 33.7364 -83.4542 64° Northeast 489 563 22,500 1,620 Climbing Atlanta Center
07:08PM 33.7983 -83.3014 64° Northeast 502 578 24,100 1,380 Climbing Atlanta Center
07:09PM 33.8619 -83.1431 64° Northeast 516 594 25,300 1,020 Climbing Atlanta Center
07:10PM 33.9253 -82.9797 65° Northeast 521 600 26,200 1,200 Climbing Atlanta Center
07:11PM 33.9844 -82.8339 64° Northeast 528 608 27,700 1,320 Climbing Atlanta Center
07:12PM 34.0497 -82.6700 64° Northeast 533 613 28,900 1,020 Climbing Atlanta Center
07:13PM 34.1186 -82.5056 63° Northeast 528 608 29,800 780 Climbing Atlanta Center
07:14PM 34.1872 -82.3186 66° East 533 613 30,500 600 Climbing Atlanta Center
07:15PM 34.2575 -82.1464 64° Northeast 549 632 31,100 600 Climbing Atlanta Center
07:16PM 34.3383 -81.9783 60° Northeast 560 644 31,700 600 Climbing Atlanta Center
07:17PM 34.4231 -81.8128 58° Northeast 571 657 32,300 600 Climbing Atlanta Center
07:18PM 34.5056 -81.6442 59° Northeast 581 669 33,000 300 Climbing Atlanta Center
07:19PM 34.5878 -81.4778 59° Northeast 581 669 33,000  Level Atlanta Center
07:20PM 34.6697 -81.3111 59° Northeast 581 669 33,000  Level Atlanta Center
07:21PM 34.7514 -81.1417 60° Northeast 581 669 33,000  Level Atlanta Center
07:22PM 34.8328 -80.9742 59° Northeast 581 669 33,000  Level Atlanta Center
07:23PM 34.9183 -80.8039 58° Northeast 581 669 33,000  Level Atlanta Center
07:25PM 35.0553 -80.5167 60° Northeast 576 663 33,000  Level Washington Center
07:26PM 35.1392 -80.3467 59° Northeast 576 663 33,000  Level Washington Center
07:27PM 35.2189 -80.1786 60° Northeast 576 663 33,000  Level Washington Center
07:28PM 35.2981 -80.0125 60° Northeast 576 663 33,000  Level Washington Center
07:29PM 35.3794 -79.8439 59° Northeast 576 663 33,000  Level Washington Center
07:30PM 35.4583 -79.6744 60° Northeast 576 663 33,000  Level Washington Center
07:31PM 35.5369 -79.5075 60° Northeast 570 656 33,000  Level Washington Center
07:32PM 35.6133 -79.3428 60° Northeast 558 642 33,000  Level Washington Center
07:33PM 35.6892 -79.1800 60° Northeast 553 636 33,000  Level Washington Center
07:34PM 35.7672 -79.0119 60° Northeast 553 636 33,000  Level Washington Center
07:35PM 35.8447 -78.8514 59° Northeast 553 636 33,000  Level Washington Center
07:36PM 35.8869 -78.6711 74° East 538 619 33,000  Level Washington Center
07:37PM 35.9086 -78.4769 82° East 543 625 33,000  Level Washington Center
07:38PM 35.9228 -78.3108 84° East 549 632 33,000  Level Washington Center
07:39PM 35.9436 -78.1217 82° East 549 632 33,000  Level Washington Center
07:40PM 35.9600 -77.9350 84° East 549 632 33,000  Level Washington Center
07:41PM 35.9803 -77.7481 82° East 549 632 33,000  Level Washington Center
07:42PM 36.0475 -77.5881 63° Northeast 531 611 33,000  Level Washington Center
07:43PM 36.1397 -77.4411 52° Northeast 518 596 33,000  Level Washington Center
07:44PM 36.2275 -77.2967 53° Northeast 518 596 33,000  Level Washington Center
07:45PM 36.3294 -77.1672 46° Northeast 523 602 33,000  Level Washington Center
07:46PM 36.4456 -77.0561 38° Northeast 517 595 33,000  Level Washington Center
07:47PM 36.5594 -76.9444 38° Northeast 517 595 33,000  Level Washington Center
07:48PM 36.6756 -76.8297 38° Northeast 517 595 33,000  Level Washington Center
07:49PM 36.7911 -76.7228 37° Northeast 517 595 33,000  Level Washington Center
07:50PM 36.9175 -76.5947 39° Northeast 525 604 33,000  Level Washington Center
07:51PM 37.0331 -76.4792 39° Northeast 525 604 33,000  Level Washington Center
07:52PM 37.1508 -76.3658 37° Northeast 525 604 33,000  Level Washington Center
07:53PM 37.2683 -76.2522 38° Northeast 525 604 33,000  Level Washington Center
07:54PM 37.3856 -76.1408 37° Northeast 525 604 33,000  Level Washington Center
07:55PM 37.5050 -76.0239 38° Northeast 525 604 33,000 -60 Level Washington Center
07:56PM 37.6200 -75.9117 38° Northeast 530 610 32,900  Descending Washington Center
07:57PM 37.7350 -75.7939 39° Northeast 530 610 33,000  Climbing Washington Center
07:58PM 37.8542 -75.6706 39° Northeast 536 617 33,000  Level Washington Center
07:59PM 37.9708 -75.5575 37° Northeast 536 617 33,000  Level Washington Center
08:00PM 38.0939 -75.4519 34° Northeast 536 617 33,000  Level Washington Center
08:01PM 38.2250 -75.3644 28° Northeast 523 602 33,000  Level Washington Center
08:02PM 38.3561 -75.2767 28° Northeast 523 602 33,000  Level Washington Center
08:03PM 38.4872 -75.1911 27° Northeast 523 602 33,000  Level Washington Center
08:04PM 38.6225 -75.1108 25° Northeast 523 602 33,000  Level Washington Center
08:05PM 38.7575 -75.0219 27° Northeast 529 609 33,000  Level Washington Center
08:06PM 38.8906 -74.9356 27° Northeast 529 609 33,000  Level Washington Center
08:07PM 39.0256 -74.8433 28° Northeast 529 609 33,000 -1,200 Level Washington Center
08:08PM 39.1500 -74.7431 32° Northeast 529 609 30,600 -3,120 Descending Washington Center
08:10PM 39.3403 -74.5397 40° Northeast 550 633 24,900 -3,180 Descending New York Center
08:11PM 39.4506 -74.4167 41° Northeast 532 612 22,300 -2,580 Descending New York Center
08:12PM 39.5478 -74.3111 40° Northeast 520 598 19,800 -1,800 Descending New York Center
08:13PM 39.6642 -74.1794 41° Northeast 512 589 18,900 -1,560 Descending New York Center
08:14PM 39.7694 -74.0658 40° Northeast 492 566 16,700 -2,640 Descending New York Center
08:15PM 39.8681 -73.9703 37° Northeast 467 537 13,600 -2,340 Descending New York Center
08:16PM 39.9553 -73.9067 29° Northeast 419 482 12,000 -1,380 Descending New York Center
08:17PM 40.0467 -73.8403 29° Northeast 358 412 11,000 -960 Descending New York Center
08:18PM 40.1128 -73.7781 36° Northeast 331 381 10,100 -1,140 Descending New York Center
08:19PM 40.1833 -73.7167 34° Northeast 304 350 9,000 -1,320 Descending New York TRACON
08:20PM 40.2500 -73.6667 30° Northeast 291 335 7,800 -1,320 Descending New York TRACON
08:21PM 40.3000 -73.6000 45° Northeast 266 306 6,600 -1,560 Descending New York TRACON
08:21PM 40.3133 -73.5881 34° Northeast 277 319 6,000 -2,400 Descending New York Center
08:22PM 40.3628 -73.5275 43° Northeast 266 306 3,600 -1,740 Descending New York Center
08:23PM 40.4167 -73.4667 41° Northeast 268 308 3,000 -360 Descending New York TRACON
08:24PM 40.4667 -73.4667 360° North 212 244 3,000  Level New York TRACON
08:25PM 40.5167 -73.5000 333° Northwest 198 228 3,000  Level New York TRACON
08:26PM 40.5500 -73.5500 311° West 187 215 3,000 -180 Level New York TRACON
08:27PM 40.5833 -73.6167 303° West 158 182 2,700 -600 Descending New York TRACON
08:28PM 40.6000 -73.6667 294° West 157 181 1,900 -900 Descending New York TRACON
08:29PM 40.6167 -73.7000 303° West 131 151 1,100 -900 Descending New York TRACON